Time;durP1;ratioP1;P1;durP2;ratioP2;P2;SDS_P1;SDS_P2;PMS_P1;PMS_P2;Temp;Humidity;BMP_temperature;BMP_pressure;BME280_temperature;BME280_humidity;BME280_pressure;Samples;Min_cycle;Max_cycle;Signal;HPM_P1;HPM_P2
2023/01/18 00:00:16;;;;;;;16.13;6.78;;;0.70;99.90;;;;;;5089832;28;20025;-62
2023/01/18 00:02:45;;;;;;;15.93;6.63;;;0.80;99.90;;;;;;5084282;28;20088;-64
2023/01/18 00:05:12;;;;;;;17.80;7.05;;;0.80;99.90;;;;;;5085539;28;20031;-64
2023/01/18 00:07:38;;;;;;;17.40;7.63;;;0.70;99.90;;;;;;5082616;28;20480;-64
2023/01/18 00:10:04;;;;;;;19.73;7.75;;;0.60;99.90;;;;;;5086372;28;20035;-64
2023/01/18 00:12:29;;;;;;;21.02;7.43;;;0.50;99.90;;;;;;5086818;28;20029;-64
2023/01/18 00:14:55;;;;;;;15.00;6.85;;;0.40;99.90;;;;;;5082408;28;20040;-63
2023/01/18 00:17:21;;;;;;;20.50;7.25;;;0.30;99.90;;;;;;5086285;28;20876;-63
2023/01/18 00:19:46;;;;;;;17.65;6.97;;;0.30;99.90;;;;;;5083817;28;20028;-64
2023/01/18 00:22:12;;;;;;;21.83;7.43;;;0.30;99.90;;;;;;5086234;28;20054;-64
2023/01/18 00:24:38;;;;;;;17.63;7.00;;;0.40;99.90;;;;;;5081297;28;20082;-64
2023/01/18 00:27:03;;;;;;;15.60;7.38;;;0.40;99.90;;;;;;5086766;28;20082;-62
2023/01/18 00:29:30;;;;;;;18.17;7.50;;;0.40;99.90;;;;;;5090601;28;20024;-62
2023/01/18 00:31:55;;;;;;;18.63;7.43;;;0.40;99.90;;;;;;5087569;28;20057;-63
2023/01/18 00:34:21;;;;;;;18.25;7.80;;;0.50;99.90;;;;;;5079545;28;20045;-64
2023/01/18 00:36:47;;;;;;;16.23;7.47;;;0.50;99.90;;;;;;5086733;28;20035;-64
2023/01/18 00:39:14;;;;;;;17.75;7.13;;;0.50;99.90;;;;;;5086414;28;20024;-64
2023/01/18 00:43:37;;;;;;;19.98;7.82;;;0.40;99.90;;;;;;5087625;28;20016;-63
2023/01/18 00:44:25;;;;;;;15.07;7.10;;;0.40;99.90;;;;;;5082792;28;20067;-63
2023/01/18 00:46:51;;;;;;;15.15;7.13;;;0.40;99.90;;;;;;5085468;28;20109;-63
2023/01/18 00:49:17;;;;;;;19.30;7.80;;;0.40;99.90;;;;;;5086469;28;20469;-63
2023/01/18 00:51:43;;;;;;;15.50;7.25;;;0.40;99.90;;;;;;5088405;28;20031;-64
2023/01/18 00:54:08;;;;;;;15.40;7.65;;;0.40;99.90;;;;;;5086787;28;20064;-63
2023/01/18 00:56:34;;;;;;;14.77;7.53;;;0.50;99.90;;;;;;5086729;28;20504;-62
2023/01/18 00:59:00;;;;;;;17.65;7.78;;;0.50;99.90;;;;;;5078843;28;20064;-63
2023/01/18 01:01:25;;;;;;;15.63;7.35;;;0.60;99.90;;;;;;5079632;28;20045;-62
2023/01/18 01:06:44;;;;;;;22.42;8.00;;;0.60;99.90;;;;;;5083046;28;20142;-64
2023/01/18 01:09:23;;;;;;;17.10;7.18;;;0.60;99.90;;;;;;5087362;28;20085;-62
2023/01/18 01:28:23;;;;;;;19.60;8.45;;;0.50;99.90;;;;;;5089137;28;20058;-63
2023/01/18 01:30:49;;;;;;;19.55;8.05;;;0.50;99.90;;;;;;5086358;28;20536;-63
2023/01/18 01:33:16;;;;;;;20.58;8.65;;;0.60;99.90;;;;;;5088102;28;20185;-64
2023/01/18 01:35:43;;;;;;;19.42;8.10;;;0.60;99.90;;;;;;5065490;28;20039;-64
2023/01/18 01:38:09;;;;;;;19.67;8.60;;;0.60;99.90;;;;;;5082256;28;20064;-64
2023/01/18 01:40:35;;;;;;;20.42;9.07;;;0.60;99.90;;;;;;5087116;28;20771;-64
2023/01/18 01:43:01;;;;;;;18.15;8.20;;;0.60;99.90;;;;;;5087953;28;20427;-63
2023/01/18 01:45:30;;;;;;;22.63;8.93;;;0.60;99.90;;;;;;5075629;28;20027;-63
2023/01/18 01:47:58;;;;;;;20.90;8.80;;;0.60;99.90;;;;;;5071462;28;20036;-63
2023/01/18 01:50:37;;;;;;;19.58;7.30;;;0.60;99.90;;;;;;5086401;28;20032;-63
2023/01/18 01:53:03;;;;;;;16.02;7.10;;;0.50;99.90;;;;;;5082163;28;20035;-63
2023/01/18 01:55:36;;;;;;;18.60;8.50;;;0.50;99.90;;;;;;5080569;28;20112;-63
2023/01/18 01:58:20;;;;;;;21.85;7.97;;;0.50;99.90;;;;;;5091573;28;20085;-64
2023/01/18 02:00:46;;;;;;;18.02;8.35;;;0.50;99.90;;;;;;5086666;28;20736;-64
2023/01/18 02:03:18;;;;;;;19.90;8.43;;;0.40;99.90;;;;;;5088676;28;20024;-64
2023/01/18 02:05:46;;;;;;;19.38;8.73;;;0.40;99.90;;;;;;5088006;28;20524;-64
2023/01/18 02:08:16;;;;;;;22.83;8.82;;;0.40;99.90;;;;;;5074388;28;20175;-64
2023/01/18 02:10:42;;;;;;;22.52;9.15;;;0.40;99.90;;;;;;5080636;28;20036;-63
2023/01/18 02:13:09;;;;;;;23.80;9.75;;;0.40;99.90;;;;;;5071514;28;20036;-63
2023/01/18 02:15:46;;;;;;;20.40;9.25;;;0.40;99.90;;;;;;5088400;28;20086;-62
2023/01/18 02:18:14;;;;;;;21.50;9.38;;;0.40;99.90;;;;;;5079321;28;20027;-62
2023/01/18 02:21:07;;;;;;;23.13;9.07;;;0.40;99.90;;;;;;5088461;28;20032;-64
2023/01/18 02:24:06;;;;;;;19.15;9.00;;;0.30;99.90;;;;;;5084321;28;20071;-62
2023/01/18 02:26:38;;;;;;;20.13;8.90;;;0.30;99.90;;;;;;5088904;28;20135;-62
2023/01/18 02:30:01;;;;;;;22.55;9.52;;;0.40;99.90;;;;;;5078002;28;20114;-63
2023/01/18 02:32:51;;;;;;;24.88;10.57;;;0.40;99.90;;;;;;5011687;28;20408;-64
2023/01/18 02:35:43;;;;;;;18.25;9.05;;;0.50;99.90;;;;;;5014283;28;20029;-64
2023/01/18 02:38:31;;;;;;;26.35;10.13;;;0.50;99.90;;;;;;5012199;28;20060;-63
2023/01/18 02:41:11;;;;;;;25.90;10.02;;;0.60;99.90;;;;;;5008902;28;20092;-63
2023/01/18 02:46:34;;;;;;;23.55;10.07;;;0.70;99.90;;;;;;5018927;28;20045;-63
2023/01/18 02:49:07;;;;;;;23.75;10.13;;;0.70;99.90;;;;;;5020509;28;20038;-62
2023/01/18 02:51:32;;;;;;;25.48;10.52;;;0.70;99.90;;;;;;5016618;28;20030;-63
2023/01/18 02:53:59;;;;;;;22.45;10.38;;;0.70;99.90;;;;;;5009964;28;20044;-63
2023/01/18 02:56:38;;;;;;;26.23;10.75;;;0.60;99.90;;;;;;5017718;28;20049;-63
2023/01/18 02:59:16;;;;;;;23.80;10.20;;;0.70;99.90;;;;;;5009821;28;20129;-63
2023/01/18 03:01:47;;;;;;;23.42;9.82;;;0.70;99.90;;;;;;5015543;28;20029;-63
2023/01/18 03:04:18;;;;;;;25.35;9.93;;;0.70;99.90;;;;;;5073706;28;20032;-63
2023/01/18 03:06:50;;;;;;;24.92;10.18;;;0.80;99.90;;;;;;5074139;28;20384;-63
2023/01/18 03:09:20;;;;;;;22.77;10.57;;;0.80;99.90;;;;;;5072232;28;20681;-63
2023/01/18 03:12:14;;;;;;;24.95;10.20;;;0.80;99.90;;;;;;5090485;28;20430;-62
2023/01/18 03:15:11;;;;;;;29.08;11.32;;;0.90;99.90;;;;;;5089904;28;20058;-64
2023/01/18 03:17:51;;;;;;;22.52;10.30;;;0.90;99.90;;;;;;5087921;28;20023;-63
2023/01/18 03:20:24;;;;;;;26.13;10.57;;;0.80;99.90;;;;;;5079715;28;20878;-62
2023/01/18 03:25:44;;;;;;;24.35;11.02;;;0.80;99.90;;;;;;5085495;28;20479;-64
2023/01/18 03:34:17;;;;;;;28.20;10.20;;;0.50;99.90;;;;;;5060492;28;20582;-63
2023/01/18 03:36:48;;;;;;;29.52;11.10;;;0.40;99.90;;;;;;5062117;28;20036;-64
2023/01/18 03:39:27;;;;;;;30.75;10.95;;;0.40;99.90;;;;;;5065235;28;20032;-63
2023/01/18 03:41:57;;;;;;;25.83;10.80;;;0.30;99.90;;;;;;5069340;28;20036;-62
2023/01/18 03:44:35;;;;;;;28.23;12.07;;;0.20;99.90;;;;;;5066706;28;20114;-64
2023/01/18 03:47:02;;;;;;;29.65;12.57;;;0.30;99.90;;;;;;5064452;28;20470;-64
2023/01/18 03:49:30;;;;;;;36.70;14.57;;;0.30;99.90;;;;;;5060242;28;20807;-65
2023/01/18 03:52:00;;;;;;;37.47;14.00;;;0.40;99.90;;;;;;5068803;28;20110;-64
2023/01/18 03:54:53;;;;;;;39.50;14.48;;;0.40;99.90;;;;;;5065831;28;20056;-62
2023/01/18 03:57:23;;;;;;;38.30;15.02;;;0.50;99.90;;;;;;5069174;28;20033;-64
2023/01/18 03:59:49;;;;;;;52.45;17.08;;;0.60;99.90;;;;;;5068909;28;20064;-62
2023/01/18 04:02:16;;;;;;;44.67;17.17;;;0.60;99.90;;;;;;5065087;28;20036;-63
2023/01/18 04:04:42;;;;;;;49.83;17.95;;;0.60;99.90;;;;;;5067442;28;20024;-62
2023/01/18 04:07:07;;;;;;;43.90;16.35;;;0.50;99.90;;;;;;5066372;28;20385;-63
2023/01/18 04:09:33;;;;;;;52.80;16.73;;;0.50;99.90;;;;;;5060692;28;20036;-63
2023/01/18 04:11:58;;;;;;;43.95;16.65;;;0.50;99.90;;;;;;5062276;28;20079;-62
2023/01/18 04:14:24;;;;;;;46.08;16.35;;;0.50;99.90;;;;;;5065243;28;20044;-63
2023/01/18 04:16:50;;;;;;;46.67;16.70;;;0.50;99.90;;;;;;5077709;28;20028;-63
2023/01/18 04:19:16;;;;;;;48.63;16.90;;;0.60;99.90;;;;;;5057245;28;20033;-63
2023/01/18 04:21:42;;;;;;;43.95;16.33;;;0.50;99.90;;;;;;5067864;28;20031;-63
2023/01/18 04:24:08;;;;;;;43.72;15.48;;;0.50;99.90;;;;;;5068430;28;20744;-63
2023/01/18 04:26:33;;;;;;;45.00;16.05;;;0.50;99.90;;;;;;5059216;28;20170;-63
2023/01/18 04:29:00;;;;;;;44.45;16.17;;;0.50;99.90;;;;;;5082900;28;20051;-63
2023/01/18 04:31:25;;;;;;;38.13;15.07;;;0.50;99.90;;;;;;5086259;28;20028;-63
2023/01/18 04:33:51;;;;;;;43.75;15.23;;;0.50;99.90;;;;;;5081107;28;20024;-63
2023/01/18 04:36:18;;;;;;;40.35;15.20;;;0.50;99.90;;;;;;5088639;28;20093;-63
2023/01/18 04:38:43;;;;;;;44.70;15.98;;;0.50;99.90;;;;;;5080209;28;20020;-63
2023/01/18 04:41:09;;;;;;;42.13;15.30;;;0.50;99.90;;;;;;5074036;28;20036;-63
2023/01/18 04:43:35;;;;;;;38.72;15.38;;;0.60;99.90;;;;;;5084423;28;20230;-62
2023/01/18 04:46:01;;;;;;;41.30;15.05;;;0.50;99.90;;;;;;5069560;28;20032;-63
2023/01/18 04:48:26;;;;;;;45.72;15.60;;;0.50;99.90;;;;;;5076487;28;20070;-63
2023/01/18 04:50:52;;;;;;;44.25;15.40;;;0.50;99.90;;;;;;5080615;28;20028;-63
2023/01/18 04:53:19;;;;;;;38.60;14.73;;;0.50;99.90;;;;;;5082109;28;20028;-63
2023/01/18 04:55:45;;;;;;;46.42;15.25;;;0.50;99.90;;;;;;5076124;28;20024;-63
2023/01/18 04:58:10;;;;;;;39.15;14.20;;;0.60;99.90;;;;;;5081227;28;20040;-63
2023/01/18 05:00:38;;;;;;;38.33;13.68;;;0.50;99.90;;;;;;5075898;28;20035;-63
2023/01/18 05:03:09;;;;;;;39.17;14.23;;;0.50;99.90;;;;;;5070698;28;20036;-63
2023/01/18 05:05:34;;;;;;;42.83;14.30;;;0.60;99.90;;;;;;5087127;28;20085;-64
2023/01/18 05:08:00;;;;;;;35.85;13.75;;;0.60;99.90;;;;;;5090438;28;20032;-64
2023/01/18 05:10:26;;;;;;;37.45;13.32;;;0.60;99.90;;;;;;5085821;28;20036;-62
2023/01/18 05:12:51;;;;;;;37.80;14.75;;;0.60;99.90;;;;;;5087057;28;20040;-63
2023/01/18 05:15:17;;;;;;;37.78;13.52;;;0.50;99.90;;;;;;5068472;28;20388;-63
2023/01/18 05:17:43;;;;;;;37.25;13.80;;;0.50;99.90;;;;;;5087390;28;20027;-64
2023/01/18 05:20:10;;;;;;;35.15;12.38;;;0.50;99.90;;;;;;5087569;28;20487;-63
2023/01/18 05:22:36;;;;;;;34.67;12.73;;;0.50;99.90;;;;;;5083655;28;20071;-64
2023/01/18 05:25:06;;;;;;;38.70;14.13;;;0.50;99.90;;;;;;5087691;28;20035;-63
2023/01/18 05:27:32;;;;;;;35.97;13.07;;;0.50;99.90;;;;;;5087969;28;20048;-63
2023/01/18 05:29:58;;;;;;;37.92;13.18;;;0.50;99.90;;;;;;5088456;28;20119;-63
2023/01/18 05:32:24;;;;;;;38.72;13.45;;;0.50;99.90;;;;;;5089660;28;20114;-63
2023/01/18 05:34:50;;;;;;;42.20;14.10;;;0.50;99.90;;;;;;5093144;28;20429;-63
2023/01/18 05:37:15;;;;;;;40.92;14.75;;;0.50;99.90;;;;;;5091772;28;20054;-64
2023/01/18 05:39:41;;;;;;;38.70;13.07;;;0.50;99.90;;;;;;5081848;28;20017;-64
2023/01/18 05:42:07;;;;;;;37.65;13.45;;;0.50;99.90;;;;;;5085302;28;20362;-62
2023/01/18 05:44:33;;;;;;;41.15;14.80;;;0.50;99.90;;;;;;5084130;28;20024;-64
2023/01/18 05:46:59;;;;;;;35.17;12.95;;;0.50;99.90;;;;;;5090140;28;20036;-63
2023/01/18 05:49:25;;;;;;;42.70;13.73;;;0.50;99.90;;;;;;5084820;28;20027;-62
2023/01/18 05:51:50;;;;;;;45.63;14.15;;;0.40;99.90;;;;;;5072908;28;20024;-63
2023/01/18 05:54:16;;;;;;;43.28;14.63;;;0.40;99.90;;;;;;5094953;28;20051;-64
2023/01/18 05:56:42;;;;;;;42.20;15.15;;;0.40;99.90;;;;;;5093746;28;20115;-63
2023/01/18 05:59:07;;;;;;;40.90;14.57;;;0.40;99.90;;;;;;5090629;28;20028;-63
2023/01/18 06:01:33;;;;;;;38.90;14.32;;;0.40;99.90;;;;;;5089026;28;20024;-63
2023/01/18 06:03:59;;;;;;;43.53;14.68;;;0.40;99.90;;;;;;5090872;28;20032;-64
2023/01/18 06:06:25;;;;;;;42.17;13.88;;;0.40;99.90;;;;;;5088324;28;20059;-63
2023/01/18 06:08:50;;;;;;;43.90;15.35;;;0.40;99.90;;;;;;5090049;28;20024;-63
2023/01/18 06:11:16;;;;;;;44.85;14.35;;;0.40;99.90;;;;;;5090867;28;20448;-62
2023/01/18 06:13:42;;;;;;;47.75;15.63;;;0.40;99.90;;;;;;5089864;28;20024;-63
2023/01/18 06:16:07;;;;;;;43.13;14.77;;;0.40;99.90;;;;;;5091097;28;20048;-62
2023/01/18 06:18:33;;;;;;;45.70;14.55;;;0.40;99.90;;;;;;5090174;28;20063;-63
2023/01/18 06:21:01;;;;;;;44.15;15.93;;;0.50;99.90;;;;;;5089723;28;20035;-62
2023/01/18 06:23:28;;;;;;;49.15;16.70;;;0.50;99.90;;;;;;5091889;28;20042;-64
2023/01/18 06:25:53;;;;;;;43.00;15.68;;;0.50;99.90;;;;;;5093179;28;20040;-63
2023/01/18 06:28:21;;;;;;;43.83;14.55;;;0.60;99.90;;;;;;5090340;28;20118;-64
2023/01/18 06:30:47;;;;;;;49.17;16.95;;;0.60;99.90;;;;;;5088564;28;20054;-63
2023/01/18 06:33:14;;;;;;;57.03;19.08;;;0.70;99.90;;;;;;5089343;28;20064;-64
2023/01/18 06:35:40;;;;;;;52.85;17.83;;;0.70;99.90;;;;;;5071883;28;20120;-64
2023/01/18 06:38:06;;;;;;;49.45;16.65;;;0.70;99.90;;;;;;5089426;28;20040;-64
2023/01/18 06:40:32;;;;;;;52.22;17.90;;;0.70;99.90;;;;;;5085509;28;20044;-64
2023/01/18 06:42:58;;;;;;;52.00;17.40;;;0.80;99.90;;;;;;5091813;28;20127;-65
2023/01/18 06:45:24;;;;;;;48.17;17.02;;;0.80;99.90;;;;;;5089098;28;20501;-63
2023/01/18 06:47:50;;;;;;;44.72;15.93;;;0.80;99.90;;;;;;5090090;28;20028;-63
2023/01/18 06:50:17;;;;;;;45.28;15.75;;;0.70;99.90;;;;;;5082490;28;20492;-63
2023/01/18 06:52:43;;;;;;;42.25;16.13;;;0.70;99.90;;;;;;5089534;28;20028;-64
2023/01/18 06:55:09;;;;;;;38.67;15.02;;;0.80;99.90;;;;;;5089146;28;20419;-64
2023/01/18 06:57:35;;;;;;;41.47;15.90;;;0.70;99.90;;;;;;5089636;28;20038;-64
2023/01/18 07:00:04;;;;;;;40.47;15.05;;;0.70;99.90;;;;;;5088746;28;20040;-64
2023/01/18 07:02:31;;;;;;;37.80;14.70;;;0.70;99.90;;;;;;5088184;28;20052;-63
2023/01/18 07:04:57;;;;;;;35.13;13.35;;;0.70;99.90;;;;;;5088997;28;20040;-64
2023/01/18 07:07:22;;;;;;;36.88;13.85;;;0.70;99.90;;;;;;5090054;28;20059;-63
2023/01/18 07:09:48;;;;;;;33.03;13.27;;;0.60;99.90;;;;;;5087098;28;20067;-63
2023/01/18 07:12:14;;;;;;;31.50;12.43;;;0.60;99.90;;;;;;5071207;28;20035;-63
2023/01/18 07:14:40;;;;;;;34.22;13.73;;;0.60;99.90;;;;;;5087684;28;20056;-62
2023/01/18 07:17:05;;;;;;;34.55;12.88;;;0.60;99.90;;;;;;5089512;28;20051;-62
2023/01/18 07:19:31;;;;;;;28.42;11.98;;;0.60;99.90;;;;;;5089050;28;20036;-63
2023/01/18 07:22:00;;;;;;;33.38;12.30;;;0.60;99.90;;;;;;5089562;28;20036;-63
2023/01/18 07:24:27;;;;;;;32.40;12.57;;;0.50;99.90;;;;;;5088554;28;20036;-64
2023/01/18 07:26:52;;;;;;;29.15;11.85;;;0.50;99.90;;;;;;5085052;28;20078;-64
2023/01/18 07:29:19;;;;;;;26.08;10.93;;;0.50;99.90;;;;;;5087625;28;20135;-63
2023/01/18 07:31:44;;;;;;;25.83;11.00;;;0.50;99.90;;;;;;5083581;28;20024;-64
2023/01/18 07:34:10;;;;;;;27.20;11.25;;;0.50;99.90;;;;;;5089128;28;20028;-64
2023/01/18 07:36:38;;;;;;;22.70;9.50;;;0.50;99.90;;;;;;5087583;28;20035;-64
2023/01/18 07:39:05;;;;;;;22.95;9.57;;;0.50;99.90;;;;;;5088574;28;20248;-64
2023/01/18 07:41:31;;;;;;;22.70;9.85;;;0.40;99.90;;;;;;5090568;28;20035;-64
2023/01/18 07:43:56;;;;;;;21.23;9.20;;;0.50;99.90;;;;;;5088928;28;20036;-63
2023/01/18 07:46:24;;;;;;;17.08;7.53;;;0.50;99.90;;;;;;5089365;28;20077;-63
2023/01/18 07:48:51;;;;;;;19.08;8.38;;;0.40;99.90;;;;;;5088447;28;20055;-63
2023/01/18 07:51:17;;;;;;;19.90;7.95;;;0.50;99.90;;;;;;5088895;28;20118;-64
2023/01/18 07:53:44;;;;;;;16.08;7.60;;;0.50;99.90;;;;;;5088328;28;20053;-64
2023/01/18 07:56:13;;;;;;;19.05;7.55;;;0.40;99.90;;;;;;5080929;28;20052;-64
2023/01/18 07:58:39;;;;;;;16.10;7.22;;;0.40;99.90;;;;;;5082011;28;20040;-64
2023/01/18 08:01:13;;;;;;;18.15;6.88;;;0.50;99.90;;;;;;5070317;28;20035;-64
2023/01/18 08:03:41;;;;;;;13.68;6.45;;;0.50;99.90;;;;;;5078744;28;20020;-64
2023/01/18 08:06:07;;;;;;;14.80;6.55;;;0.50;99.90;;;;;;5084166;28;20039;-63
2023/01/18 08:08:35;;;;;;;14.82;6.63;;;0.50;99.90;;;;;;5086841;28;20116;-65
2023/01/18 08:11:02;;;;;;;15.27;6.40;;;0.50;99.90;;;;;;5087954;28;20028;-65
2023/01/18 08:13:28;;;;;;;12.48;5.90;;;0.50;99.90;;;;;;5088466;28;20045;-63
2023/01/18 08:15:57;;;;;;;14.93;6.63;;;0.60;99.90;;;;;;5086686;28;20032;-64
2023/01/18 08:18:23;;;;;;;16.25;6.55;;;0.50;99.90;;;;;;5088192;28;20028;-65
2023/01/18 08:20:49;;;;;;;14.43;7.38;;;0.50;99.90;;;;;;5069751;28;20951;-65
2023/01/18 08:23:16;;;;;;;15.98;7.05;;;0.40;99.90;;;;;;5087655;28;20165;-63
2023/01/18 08:25:42;;;;;;;15.85;6.72;;;0.40;99.90;;;;;;5071415;28;20054;-63
2023/01/18 08:28:08;;;;;;;11.45;6.15;;;0.40;99.90;;;;;;5087734;28;20056;-64
2023/01/18 08:30:38;;;;;;;12.57;5.63;;;0.30;99.90;;;;;;5083016;28;20097;-64
2023/01/18 08:33:04;;;;;;;14.95;6.20;;;0.30;99.90;;;;;;5086814;28;20202;-64
2023/01/18 08:35:33;;;;;;;12.48;5.90;;;0.30;99.90;;;;;;5081026;28;20047;-64
2023/01/18 08:38:00;;;;;;;12.30;5.75;;;0.20;99.90;;;;;;5080640;28;20051;-64
2023/01/18 08:40:27;;;;;;;12.15;5.35;;;0.20;99.90;;;;;;5088333;28;20537;-64
2023/01/18 08:42:57;;;;;;;13.25;5.40;;;0.20;99.90;;;;;;5089366;28;20024;-63
2023/01/18 08:45:23;;;;;;;;;;;0.10;99.90;;;;;;5088686;28;20376;-63
2023/01/18 08:47:57;;;;;;;11.93;4.78;;;0.20;99.90;;;;;;5087448;28;19919;-65
2023/01/18 08:50:23;;;;;;;11.95;5.07;;;0.10;99.90;;;;;;5081221;28;20044;-63
2023/01/18 08:52:51;;;;;;;12.55;5.40;;;0.20;99.90;;;;;;5084855;28;20043;-63
2023/01/18 08:55:17;;;;;;;12.10;5.10;;;0.20;99.90;;;;;;5088259;28;20039;-64
2023/01/18 08:57:43;;;;;;;11.35;5.18;;;0.20;99.90;;;;;;5091000;28;20039;-64
2023/01/18 09:00:09;;;;;;;11.07;4.95;;;0.10;99.90;;;;;;5081811;28;20040;-64
2023/01/18 09:02:35;;;;;;;11.75;4.75;;;0.10;99.90;;;;;;5085505;28;20090;-63
2023/01/18 09:05:00;;;;;;;12.48;5.20;;;0.10;99.90;;;;;;5069748;28;20035;-63
2023/01/18 09:07:26;;;;;;;11.45;4.70;;;0.20;99.90;;;;;;5086676;28;20481;-64
2023/01/18 09:09:52;;;;;;;12.55;4.80;;;0.20;99.90;;;;;;5087190;28;20032;-65
2023/01/18 09:12:18;;;;;;;13.45;4.53;;;0.20;99.90;;;;;;5086913;28;20024;-64
2023/01/18 09:14:44;;;;;;;9.93;4.32;;;0.30;99.90;;;;;;5086699;28;20032;-63
2023/01/18 09:17:09;;;;;;;11.75;5.25;;;0.20;99.90;;;;;;5087469;28;20086;-64
2023/01/18 09:19:35;;;;;;;10.85;4.50;;;0.20;99.90;;;;;;5086718;28;20043;-64
2023/01/18 09:22:00;;;;;;;10.10;4.75;;;0.30;99.90;;;;;;5082307;28;20068;-63
2023/01/18 09:24:26;;;;;;;9.20;4.45;;;0.30;99.90;;;;;;5086991;28;20028;-63
2023/01/18 09:26:52;;;;;;;10.65;4.70;;;0.40;99.90;;;;;;5083579;28;20040;-64
2023/01/18 09:29:19;;;;;;;9.95;4.60;;;0.40;99.90;;;;;;5085184;28;20050;-63
2023/01/18 09:31:45;;;;;;;12.73;5.38;;;0.30;99.90;;;;;;5086697;28;20453;-63
2023/01/18 09:34:15;;;;;;;10.95;5.18;;;0.30;99.90;;;;;;5087677;28;20059;-64
2023/01/18 09:36:41;;;;;;;10.50;5.40;;;0.40;99.90;;;;;;5087216;28;20622;-63
2023/01/18 09:39:07;;;;;;;11.38;5.13;;;0.40;99.90;;;;;;5086960;28;20031;-64
2023/01/18 09:41:41;;;;;;;12.43;4.95;;;0.40;99.90;;;;;;5088121;28;20035;-63
2023/01/18 09:44:37;;;;;;;11.30;4.88;;;0.40;99.90;;;;;;5087356;28;20039;-64
2023/01/18 09:47:23;;;;;;;11.00;4.93;;;0.40;99.90;;;;;;5087630;28;20040;-64
2023/01/18 09:50:12;;;;;;;12.85;5.13;;;0.40;99.90;;;;;;5086688;28;20513;-64
2023/01/18 09:52:54;;;;;;;11.82;5.22;;;0.50;99.90;;;;;;5082617;28;20064;-62
2023/01/18 09:55:23;;;;;;;12.10;5.43;;;0.50;99.90;;;;;;5061604;28;20028;-64
2023/01/18 09:57:54;;;;;;;12.20;5.82;;;0.50;99.90;;;;;;5086882;28;20028;-63
2023/01/18 10:00:29;;;;;;;10.63;4.72;;;0.50;99.90;;;;;;5087315;28;20028;-63
2023/01/18 10:03:02;;;;;;;11.95;5.60;;;0.50;99.90;;;;;;5088731;28;20818;-63
2023/01/18 10:05:32;;;;;;;12.57;5.45;;;0.50;99.90;;;;;;5081909;28;20469;-63
2023/01/18 10:08:15;;;;;;;12.93;5.78;;;0.50;99.90;;;;;;5084702;28;20125;-64
2023/01/18 10:11:05;;;;;;;11.45;5.50;;;0.60;99.90;;;;;;5086511;28;20038;-64
2023/01/18 10:13:46;;;;;;;12.25;6.05;;;0.50;99.90;;;;;;5087953;28;20039;-64
2023/01/18 10:16:15;;;;;;;;;;;0.50;99.90;;;;;;5089099;28;20150;-64
2023/01/18 10:18:50;;;;;;;17.30;6.70;;;0.40;99.90;;;;;;5089117;28;19915;-63
2023/01/18 10:21:32;;;;;;;15.88;6.97;;;0.40;99.90;;;;;;5084518;28;20024;-63
2023/01/18 10:24:18;;;;;;;17.30;8.30;;;0.30;99.90;;;;;;5089980;28;20035;-64
2023/01/18 10:26:47;;;;;;;22.23;8.73;;;0.30;99.90;;;;;;5088666;28;20047;-63
2023/01/18 10:29:20;;;;;;;18.10;8.57;;;0.30;99.90;;;;;;5089362;28;20097;-64
2023/01/18 10:31:54;;;;;;;20.55;9.05;;;0.30;99.90;;;;;;5083399;28;20051;-64
2023/01/18 10:34:26;;;;;;;20.15;8.25;;;0.20;99.90;;;;;;5072720;28;20030;-64
2023/01/18 10:36:56;;;;;;;18.23;8.07;;;0.20;99.90;;;;;;5089964;28;20116;-62
2023/01/18 10:39:33;;;;;;;18.85;7.85;;;0.30;99.90;;;;;;5089139;28;20024;-64
2023/01/18 10:42:02;;;;;;;17.17;7.53;;;0.30;99.90;;;;;;5085689;28;20024;-63
2023/01/18 10:44:28;;;;;;;17.40;8.20;;;0.30;99.90;;;;;;5090673;28;20027;-63
2023/01/18 10:46:59;;;;;;;15.73;7.63;;;0.30;99.90;;;;;;5093128;28;20039;-64
2023/01/18 10:49:33;;;;;;;17.33;7.65;;;0.40;99.90;;;;;;5080030;28;20133;-64
2023/01/18 10:52:34;;;;;;;16.55;7.35;;;0.40;99.90;;;;;;5089393;28;20034;-63
2023/01/18 10:55:06;;;;;;;18.63;7.82;;;0.40;99.90;;;;;;5089185;28;20032;-64
2023/01/18 10:57:41;;;;;;;19.30;7.65;;;0.40;99.90;;;;;;5094875;28;20110;-64
2023/01/18 11:00:23;;;;;;;17.65;7.25;;;0.30;99.90;;;;;;5085134;28;20489;-64
2023/01/18 11:02:52;;;;;;;17.08;7.57;;;0.40;99.90;;;;;;5089474;28;20032;-66
2023/01/18 11:05:29;;;;;;;15.95;7.10;;;0.40;99.90;;;;;;5095787;28;20039;-64
2023/01/18 11:08:35;;;;;;;14.82;6.80;;;0.40;99.90;;;;;;5086934;28;20040;-64
2023/01/18 11:11:04;;;;;;;17.85;7.30;;;0.40;99.90;;;;;;5003999;28;20033;-63
2023/01/18 11:13:30;;;;;;;15.65;7.05;;;0.30;99.90;;;;;;5002871;28;20060;-63
2023/01/18 11:16:11;;;;;;;18.83;7.90;;;0.30;99.90;;;;;;5001010;28;20622;-64
2023/01/18 11:18:39;;;;;;;15.80;7.22;;;0.30;99.90;;;;;;5006810;28;20045;-64
2023/01/18 11:21:10;;;;;;;16.95;7.68;;;0.30;99.90;;;;;;4997838;28;20034;-63
2023/01/18 11:23:36;;;;;;;13.10;6.82;;;0.30;99.90;;;;;;4999517;28;20048;-65
2023/01/18 11:26:22;;;;;;;16.88;7.70;;;0.30;99.90;;;;;;5004032;28;20196;-64
2023/01/18 11:28:58;;;;;;;17.05;6.70;;;0.20;99.90;;;;;;4998355;28;20042;-65
2023/01/18 11:31:27;;;;;;;15.77;6.80;;;0.30;99.90;;;;;;5005309;28;20423;-64
2023/01/18 11:34:01;;;;;;;14.65;6.68;;;0.30;99.90;;;;;;5004768;28;20040;-65
2023/01/18 11:36:32;;;;;;;13.38;6.55;;;0.30;99.90;;;;;;5006645;28;20053;-65
2023/01/18 11:39:27;;;;;;;15.30;7.05;;;0.30;99.90;;;;;;5006125;28;20215;-64
2023/01/18 11:42:30;;;;;;;13.88;6.32;;;0.30;99.90;;;;;;5045625;28;20072;-64
2023/01/18 11:45:19;;;;;;;15.18;6.45;;;0.30;99.90;;;;;;5045028;28;20044;-64
2023/01/18 11:48:11;;;;;;;19.92;7.22;;;0.30;99.90;;;;;;5088726;28;20036;-65
2023/01/18 11:50:48;;;;;;;15.65;6.85;;;0.30;99.90;;;;;;5087737;28;20039;-64
2023/01/18 11:53:40;;;;;;;15.88;7.85;;;0.40;99.90;;;;;;5089424;28;20674;-64
2023/01/18 11:56:29;;;;;;;16.23;7.45;;;0.30;99.90;;;;;;5083165;28;20051;-64
2023/01/18 11:58:55;;;;;;;13.43;6.53;;;0.40;99.90;;;;;;5080128;28;20029;-64
2023/01/18 12:01:26;;;;;;;17.60;7.47;;;0.40;99.90;;;;;;5090670;28;20445;-64
2023/01/18 12:04:12;;;;;;;18.67;7.80;;;0.30;99.90;;;;;;5080889;28;20118;-63
2023/01/18 12:07:02;;;;;;;15.70;7.40;;;0.30;99.90;;;;;;5061786;28;20665;-64
2023/01/18 12:10:16;;;;;;;13.57;6.28;;;0.30;99.90;;;;;;5085860;28;20028;-65
2023/01/18 12:12:57;;;;;;;14.88;7.40;;;0.50;99.90;;;;;;5066580;28;20051;-64
2023/01/18 12:15:41;;;;;;;17.20;7.97;;;0.50;99.90;;;;;;5086803;28;20040;-64
2023/01/18 12:18:34;;;;;;;16.90;7.50;;;0.50;99.90;;;;;;5087984;28;20028;-64
2023/01/18 12:21:00;;;;;;;16.38;7.32;;;0.40;99.90;;;;;;5083726;28;20385;-64
2023/01/18 12:24:13;;;;;;;17.02;7.70;;;0.30;99.90;;;;;;5066906;28;20032;-64
2023/01/18 12:26:56;;;;;;;19.45;7.72;;;0.30;99.90;;;;;;5023751;28;20055;-64
2023/01/18 12:29:31;;;;;;;16.15;7.43;;;0.30;99.90;;;;;;5086061;28;20067;-65
2023/01/18 12:32:31;;;;;;;18.05;7.50;;;0.30;99.90;;;;;;5081959;28;20032;-63
2023/01/18 12:35:32;;;;;;;11.52;5.25;;;0.30;99.90;;;;;;5087774;28;20036;-63
2023/01/18 12:38:14;;;;;;;17.92;7.53;;;0.30;99.90;;;;;;5076161;28;20490;-64
2023/01/18 12:41:05;;;;;;;15.98;6.97;;;0.30;99.90;;;;;;5083859;28;20115;-64
2023/01/18 12:43:43;;;;;;;16.75;7.57;;;0.30;99.90;;;;;;5041128;28;20139;-64
2023/01/18 12:46:37;;;;;;;15.13;7.32;;;0.30;99.90;;;;;;5070611;28;20039;-63
2023/01/18 12:49:17;;;;;;;17.83;7.32;;;0.30;99.90;;;;;;5087096;28;20508;-64
2023/01/18 12:51:49;;;;;;;15.50;6.63;;;0.30;99.90;;;;;;5088479;28;20036;-65
2023/01/18 12:54:25;;;;;;;14.80;6.40;;;0.30;99.90;;;;;;5090746;28;20032;-63
2023/01/18 12:56:55;;;;;;;16.10;6.93;;;0.30;99.90;;;;;;5066269;28;20043;-64
2023/01/18 12:59:23;;;;;;;16.30;7.38;;;0.30;99.90;;;;;;5087712;28;20078;-64
2023/01/18 13:02:00;;;;;;;13.88;6.68;;;0.30;99.90;;;;;;5086637;28;20111;-64
2023/01/18 13:04:41;;;;;;;16.45;7.30;;;0.30;99.90;;;;;;5087993;28;20032;-64
2023/01/18 13:07:13;;;;;;;16.92;8.05;;;0.40;99.90;;;;;;5084879;28;20020;-64
2023/01/18 13:09:46;;;;;;;20.48;8.30;;;0.40;99.90;;;;;;5087669;28;20032;-64
2023/01/18 13:12:15;;;;;;;23.30;9.07;;;0.40;99.90;;;;;;5080120;28;20078;-63
2023/01/18 13:14:47;;;;;;;17.55;7.82;;;0.30;99.90;;;;;;5086736;28;20491;-64
2023/01/18 13:17:17;;;;;;;18.70;7.93;;;0.30;99.90;;;;;;5069419;28;20050;-64
2023/01/18 13:19:48;;;;;;;;;;;0.20;99.90;;;;;;5088314;28;20056;-64
2023/01/18 13:22:34;;;;;;;15.82;7.32;;;0.20;99.90;;;;;;5084356;28;19955;-65
2023/01/18 13:25:28;;;;;;;20.27;8.68;;;0.30;99.90;;;;;;5087113;28;20035;-65
2023/01/18 13:28:02;;;;;;;22.25;8.60;;;0.30;99.90;;;;;;5072886;28;20056;-64
2023/01/18 13:31:03;;;;;;;20.75;8.75;;;0.30;99.90;;;;;;5085378;28;20028;-63
2023/01/18 13:33:33;;;;;;;24.33;9.30;;;0.30;99.90;;;;;;5085544;28;20043;-63
2023/01/18 13:36:16;;;;;;;18.90;8.18;;;0.30;99.90;;;;;;5086529;28;20039;-63